createdAt,value
2022-08-03T00:00:19.721Z,19.275000
2022-08-03T00:05:20.319Z,19.190000
2022-08-03T00:10:19.588Z,19.100000
2022-08-03T00:15:19.680Z,19.075000
2022-08-03T00:20:29.876Z,19.000000
2022-08-03T00:25:20.819Z,18.954545
2022-08-03T00:30:19.632Z,18.855556
2022-08-03T00:35:28.674Z,18.700000
2022-08-03T00:40:31.661Z,18.600000
2022-08-03T00:45:21.868Z,18.600000
2022-08-03T00:50:19.746Z,18.600000
2022-08-03T00:55:20.087Z,18.600000
2022-08-03T01:00:19.619Z,18.600000
2022-08-03T01:05:21.585Z,18.600000
2022-08-03T01:10:19.599Z,18.666667
2022-08-03T01:15:19.622Z,18.700000
2022-08-03T01:20:19.719Z,18.600000
2022-08-03T01:25:22.377Z,18.600000
2022-08-03T01:30:19.516Z,18.738462
2022-08-03T01:35:20.738Z,18.850000
2022-08-03T01:40:31.737Z,18.900000
2022-08-03T01:45:19.602Z,18.840000
2022-08-03T01:50:19.907Z,18.688889
2022-08-03T01:55:31.597Z,18.600000
2022-08-03T02:00:20.114Z,18.614286
2022-08-03T02:05:23.233Z,18.700000
2022-08-03T02:10:34.371Z,18.700000
2022-08-03T02:15:31.720Z,18.663636
2022-08-03T02:20:21.448Z,18.522222
2022-08-03T02:25:19.646Z,18.408333
2022-08-03T02:30:19.698Z,18.309091
2022-08-03T02:35:20.092Z,18.300000
2022-08-03T02:40:21.065Z,18.300000
2022-08-03T02:45:24.361Z,18.254545
2022-08-03T02:50:19.593Z,18.200000
2022-08-03T02:55:19.709Z,18.200000
2022-08-03T03:00:28.414Z,18.200000
2022-08-03T03:05:53.117Z,18.200000
2022-08-03T03:10:19.640Z,18.200000
2022-08-03T03:15:18.788Z,18.200000
2022-08-03T03:20:29.455Z,18.200000
2022-08-03T03:25:19.665Z,18.200000
2022-08-03T03:30:19.675Z,18.272727
2022-08-03T03:35:19.624Z,18.327273
2022-08-03T03:40:22.653Z,18.427273
2022-08-03T03:45:19.630Z,18.550000
2022-08-03T03:50:19.661Z,18.708333
2022-08-03T03:55:20.006Z,18.844444
2022-08-03T04:00:23.587Z,19.020000
2022-08-03T04:05:19.533Z,19.220000
2022-08-03T04:10:19.635Z,19.377778
2022-08-03T04:15:20.532Z,19.525000
2022-08-03T04:20:19.687Z,19.670000
2022-08-03T04:25:19.741Z,19.855556
2022-08-03T04:30:31.629Z,20.054545
2022-08-03T04:35:20.856Z,20.260000
2022-08-03T04:40:24.041Z,20.445455
2022-08-03T04:45:19.810Z,20.637500
2022-08-03T04:50:21.643Z,20.900000
2022-08-03T04:55:21.441Z,21.181818
2022-08-03T05:00:19.641Z,21.445455
2022-08-03T05:05:19.697Z,21.628571
2022-08-03T05:10:19.730Z,21.808333
2022-08-03T05:15:21.639Z,22.020000
2022-08-03T05:20:19.889Z,22.200000
2022-08-03T05:25:22.274Z,22.300000
2022-08-03T05:30:27.246Z,22.400000
2022-08-03T05:35:55.908Z,22.514286
2022-08-03T05:40:25.767Z,22.683333
2022-08-03T05:45:21.679Z,22.911111
2022-08-03T05:50:20.201Z,23.085714
2022-08-03T05:55:19.819Z,23.118182
2022-08-03T06:00:19.793Z,23.250000
2022-08-03T06:05:19.868Z,23.320000
2022-08-03T06:10:35.506Z,23.436364
2022-08-03T06:15:19.789Z,23.608333
2022-08-03T06:20:19.805Z,23.600000
2022-08-03T06:25:21.226Z,23.675000
2022-08-03T06:30:21.516Z,23.754545
2022-08-03T06:35:19.876Z,24.088889
2022-08-03T06:40:21.737Z,24.250000
2022-08-03T06:45:31.738Z,24.272727
2022-08-03T06:50:25.997Z,24.200000
2022-08-03T06:55:19.847Z,24.262500
2022-08-03T07:00:19.845Z,24.388889
2022-08-03T07:05:20.053Z,24.520000
2022-08-03T07:10:21.637Z,24.600000
2022-08-03T07:15:20.229Z,24.610000
2022-08-03T07:20:19.901Z,24.650000
2022-08-03T07:25:19.387Z,24.650000
2022-08-03T07:30:22.588Z,24.700000
2022-08-03T07:35:24.958Z,24.800000
2022-08-03T07:40:19.850Z,24.912500
2022-08-03T07:45:19.859Z,25.210000
2022-08-03T07:50:20.707Z,25.562500
2022-08-03T07:55:19.909Z,25.666667
2022-08-03T08:00:20.043Z,25.516667
2022-08-03T08:05:20.438Z,25.400000
2022-08-03T08:10:19.897Z,25.480000
2022-08-03T08:15:26.582Z,25.640000
2022-08-03T08:20:32.223Z,25.870000
2022-08-03T08:25:21.065Z,25.933333
2022-08-03T08:30:19.924Z,25.970000
2022-08-03T08:35:19.979Z,25.911111
2022-08-03T08:40:31.968Z,26.072727
2022-08-03T08:45:21.499Z,26.175000
2022-08-03T08:50:27.285Z,26.133333
2022-08-03T08:55:20.776Z,26.109091
2022-08-03T09:00:32.024Z,26.111111
2022-08-03T09:05:35.781Z,26.250000
2022-08-03T09:10:20.052Z,26.566667
2022-08-03T09:15:20.017Z,26.770000
2022-08-03T09:20:20.199Z,26.900000
2022-08-03T09:25:24.659Z,26.990000
2022-08-03T09:30:34.206Z,26.944444
2022-08-03T09:35:33.123Z,27.071429
2022-08-03T09:40:32.221Z,27.218182
2022-08-03T09:45:19.956Z,27.442857
2022-08-03T09:50:20.075Z,27.550000
2022-08-03T09:56:04.991Z,27.700000
2022-08-03T09:56:36.116Z,27.700000
2022-08-03T10:00:20.396Z,27.700000
2022-08-03T10:05:20.145Z,27.800000
2022-08-03T10:10:31.079Z,27.877778
2022-08-03T10:16:23.346Z,27.837500
2022-08-03T10:16:25.984Z,27.837500
2022-08-03T10:20:21.021Z,27.610000
2022-08-03T10:25:20.006Z,27.612500
2022-08-03T10:30:20.163Z,28.063636
2022-08-03T10:35:21.576Z,28.541667
2022-08-03T10:40:33.381Z,28.666667
2022-08-03T10:45:20.353Z,28.560000
2022-08-03T10:50:20.134Z,28.516667
2022-08-03T10:55:20.672Z,28.542857
2022-08-03T11:00:21.858Z,28.607692
2022-08-03T11:05:24.903Z,28.880000
2022-08-03T11:10:20.036Z,29.310000
2022-08-03T11:15:20.091Z,29.441667
2022-08-03T11:20:22.448Z,29.041667
2022-08-03T11:25:53.662Z,28.422222
2022-08-03T11:30:20.210Z,28.322222
2022-08-03T11:35:20.364Z,28.209091
2022-08-03T11:40:22.923Z,27.355556
2022-08-03T11:45:26.002Z,26.188889
2022-08-03T11:50:20.297Z,25.641667
2022-08-03T11:55:21.332Z,25.811111
2022-08-03T12:00:20.333Z,26.045455
2022-08-03T12:05:20.258Z,25.872727
2022-08-03T12:10:20.272Z,25.745455
2022-08-03T12:15:20.506Z,25.800000
2022-08-03T12:20:20.384Z,26.000000
2022-08-03T12:25:20.953Z,25.957143
2022-08-03T12:30:20.241Z,25.718182
2022-08-03T12:35:21.412Z,25.387500
2022-08-03T12:40:23.998Z,25.200000
2022-08-03T12:45:27.686Z,25.225000
2022-08-03T12:50:32.306Z,25.350000
2022-08-03T12:55:21.793Z,25.466667
2022-08-03T13:00:29.421Z,25.350000
2022-08-03T13:05:28.410Z,25.200000
2022-08-03T13:10:20.201Z,25.115385
2022-08-03T13:15:22.731Z,25.230000
2022-08-03T13:20:25.352Z,25.300000
2022-08-03T13:25:20.495Z,25.227273
2022-08-03T13:30:29.991Z,25.000000
2022-08-03T13:35:22.723Z,24.900000
2022-08-03T13:40:23.623Z,24.900000
2022-08-03T13:45:20.333Z,24.900000
2022-08-03T13:50:20.398Z,25.075000
2022-08-03T13:55:23.090Z,25.388889
2022-08-03T14:00:26.644Z,25.600000
2022-08-03T14:05:20.299Z,25.554545
2022-08-03T14:10:32.946Z,25.341667
2022-08-03T14:15:20.591Z,25.183333
2022-08-03T14:20:37.385Z,25.218182
2022-08-03T14:25:20.378Z,25.210000
2022-08-03T14:30:21.405Z,25.183333
2022-08-03T14:35:20.332Z,25.258333
2022-08-03T14:40:20.574Z,25.500000
2022-08-03T14:45:20.766Z,25.588889
2022-08-03T14:50:30.616Z,25.354545
2022-08-03T14:55:20.317Z,25.281818
2022-08-03T15:00:27.711Z,25.222222
2022-08-03T15:05:20.249Z,25.180000
2022-08-03T15:10:21.843Z,24.891667
2022-08-03T15:15:20.348Z,24.720000
2022-08-03T15:20:42.741Z,24.600000
2022-08-03T15:26:28.639Z,24.500000
2022-08-03T15:26:32.767Z,24.500000
2022-08-03T15:30:22.174Z,24.463636
2022-08-03T15:35:20.431Z,24.400000
2022-08-03T15:40:20.495Z,24.350000
2022-08-03T15:45:20.759Z,24.300000
2022-08-03T15:50:22.673Z,24.280000
2022-08-03T15:55:20.405Z,24.200000
2022-08-03T16:00:20.437Z,24.130000
2022-08-03T16:05:20.401Z,24.100000
2022-08-03T16:10:22.968Z,24.010000
2022-08-03T16:15:21.119Z,24.000000
2022-08-03T16:20:34.380Z,24.000000
2022-08-03T16:25:20.942Z,23.900000
2022-08-03T16:30:24.052Z,23.900000
2022-08-03T16:35:27.105Z,23.820000
2022-08-03T16:40:32.345Z,23.800000
2022-08-03T16:45:21.175Z,23.800000
2022-08-03T16:50:20.473Z,23.733333
2022-08-03T16:55:49.136Z,23.627273
2022-08-03T17:00:33.206Z,23.527273
2022-08-03T17:05:21.511Z,23.430000
2022-08-03T17:10:27.046Z,23.316667
2022-08-03T17:15:20.485Z,23.222222
2022-08-03T17:20:20.350Z,23.120000
2022-08-03T17:25:39.836Z,23.000000
2022-08-03T17:30:25.382Z,22.836364
2022-08-03T17:35:20.874Z,22.633333
2022-08-03T17:40:20.478Z,22.508333
2022-08-03T17:45:22.498Z,22.425000
2022-08-03T17:50:24.756Z,22.318182
2022-08-03T17:55:55.893Z,22.230000
2022-08-03T18:00:19.763Z,22.112500
2022-08-03T18:05:22.861Z,22.000000
2022-08-03T18:10:20.402Z,21.900000
2022-08-03T18:15:21.170Z,21.755556
2022-08-03T18:20:40.606Z,21.633333
2022-08-03T18:25:44.899Z,21.587500
2022-08-03T18:30:20.309Z,21.357143
2022-08-03T18:35:20.437Z,21.150000
2022-08-03T18:40:21.080Z,20.950000
2022-08-03T18:45:55.987Z,20.900000
2022-08-03T18:50:20.337Z,20.870000
2022-08-03T18:55:32.743Z,20.650000
2022-08-03T19:00:24.542Z,20.340000
2022-08-03T19:05:24.379Z,20.045455
2022-08-03T19:10:20.409Z,20.040000
2022-08-03T19:15:21.255Z,20.162500
2022-08-03T19:20:21.896Z,20.200000
2022-08-03T19:25:20.740Z,20.122222
2022-08-03T19:30:26.379Z,20.069231
2022-08-03T19:35:19.275Z,19.940000
2022-08-03T19:40:22.372Z,19.700000
2022-08-03T19:46:04.818Z,19.470000
2022-08-03T19:50:20.824Z,19.400000
2022-08-03T19:55:20.865Z,19.487500
2022-08-03T20:00:26.523Z,19.644444
2022-08-03T20:05:20.794Z,19.780000
2022-08-03T20:10:20.842Z,19.770000
2022-08-03T20:15:22.433Z,19.650000
2022-08-03T20:20:24.063Z,19.450000
2022-08-03T20:25:21.261Z,19.200000
2022-08-03T20:30:26.421Z,19.033333
2022-08-03T20:35:21.264Z,18.870000
2022-08-03T20:40:23.598Z,18.800000
2022-08-03T20:45:59.883Z,18.870000
2022-08-03T20:46:31.113Z,18.870000
2022-08-03T20:50:21.923Z,18.816667
2022-08-03T20:55:48.245Z,18.583333
2022-08-03T21:00:24.112Z,18.322222
2022-08-03T21:05:21.364Z,18.350000
2022-08-03T21:10:21.336Z,18.400000
2022-08-03T21:16:06.080Z,18.400000
2022-08-03T21:20:21.165Z,18.455556
2022-08-03T21:25:21.263Z,18.377778
2022-08-03T21:30:21.318Z,18.210000
2022-08-03T21:35:33.800Z,18.337500
2022-08-03T21:40:21.698Z,18.891667
2022-08-03T21:45:21.709Z,19.377778
2022-08-03T21:50:21.706Z,19.500000
2022-08-03T21:55:22.166Z,19.511111
2022-08-03T22:00:25.239Z,19.600000
2022-08-03T22:05:24.939Z,19.700000
2022-08-03T22:10:21.653Z,19.700000
2022-08-03T22:15:22.628Z,19.633333
2022-08-03T22:20:21.682Z,19.600000
2022-08-03T22:25:22.155Z,19.600000
2022-08-03T22:30:21.792Z,19.677778
2022-08-03T22:35:23.326Z,19.800000
2022-08-03T22:40:22.149Z,19.800000
2022-08-03T22:46:06.845Z,19.800000
2022-08-03T22:50:31.192Z,19.800000
2022-08-03T22:55:24.671Z,19.855556
2022-08-03T23:00:22.166Z,19.918182
2022-08-03T23:06:02.104Z,20.000000
2022-08-03T23:10:22.235Z,20.000000
2022-08-03T23:15:24.613Z,19.900000
2022-08-03T23:20:22.216Z,19.800000
2022-08-03T23:25:22.167Z,19.833333
2022-08-03T23:30:21.738Z,19.945455
2022-08-03T23:35:24.816Z,20.000000
2022-08-03T23:36:31.989Z,20.000000
2022-08-03T23:40:22.132Z,20.044444
2022-08-03T23:45:19.089Z,20.140000
2022-08-03T23:50:34.320Z,20.209091
2022-08-03T23:55:22.080Z,20.310000
